Time;durP1;ratioP1;P1;durP2;ratioP2;P2;SDS_P1;SDS_P2;PMS_P1;PMS_P2;Temp;Humidity;BMP_temperature;BMP_pressure;BME280_temperature;BME280_humidity;BME280_pressure;Samples;Min_cycle;Max_cycle;Signal;HPM_P1;HPM_P2
2023/10/02 00:01:57;;;;;;;0.60;0.60;;;20.80;99.90;;;;;;4926456;29;20652;-95
2023/10/02 00:04:24;;;;;;;3.10;1.90;;;20.70;99.90;;;;;;4933523;29;20027;-94
2023/10/02 00:07:05;;;;;;;1.23;1.10;;;20.60;99.90;;;;;;4949435;28;20050;-94
2023/10/02 00:09:36;;;;;;;0.65;0.65;;;20.60;99.90;;;;;;4937500;29;20567;-90
2023/10/02 00:14:51;;;;;;;0.95;0.95;;;20.60;99.90;;;;;;4997703;23;20074;-88
2023/10/02 00:17:22;;;;;;;0.60;0.60;;;20.40;99.90;;;;;;4933027;28;20064;-88
2023/10/02 00:19:52;;;;;;;4.22;0.88;;;20.40;99.90;;;;;;4935042;28;20031;-88
2023/10/02 00:22:35;;;;;;;1.45;1.35;;;20.30;99.90;;;;;;4931980;28;20130;-91
2023/10/02 00:25:16;;;;;;;1.13;0.40;;;20.30;99.90;;;;;;4934396;29;20041;-90
2023/10/02 00:27:51;;;;;;;0.63;0.63;;;20.30;99.90;;;;;;4933137;29;20024;-95
2023/10/02 00:30:45;;;;;;;0.47;0.47;;;20.20;99.90;;;;;;4929892;29;20906;-96
2023/10/02 00:33:27;;;;;;;2.45;0.77;;;20.20;99.90;;;;;;4946163;28;20035;-96
2023/10/02 00:36:04;;;;;;;1.67;0.82;;;20.20;99.90;;;;;;4949099;28;20024;-96
2023/10/02 00:38:33;;;;;;;0.73;0.73;;;20.10;99.90;;;;;;4950391;28;20055;-96
2023/10/02 00:41:01;;;;;;;1.80;1.35;;;20.10;99.90;;;;;;4938739;29;20031;-95
2023/10/02 00:46:23;;;;;;;2.00;0.77;;;20.10;99.90;;;;;;4934191;29;20131;-93
2023/10/02 00:48:50;;;;;;;0.95;0.55;;;20.00;99.90;;;;;;4933894;28;20167;-96
2023/10/02 00:51:15;;;;;;;0.73;0.73;;;20.00;99.90;;;;;;4949622;28;20074;-96
2023/10/02 00:53:48;;;;;;;0.45;0.45;;;20.00;99.90;;;;;;4932650;29;20243;-96
2023/10/02 00:56:24;;;;;;;1.13;0.73;;;20.10;99.90;;;;;;4940513;29;20055;-90
2023/10/02 00:59:00;;;;;;;3.28;1.05;;;20.00;99.90;;;;;;4941001;28;20306;-95
2023/10/02 01:01:30;;;;;;;1.20;1.20;;;20.00;99.90;;;;;;4938662;29;20035;-91
2023/10/02 01:04:11;;;;;;;4.10;1.50;;;20.00;99.90;;;;;;4930893;29;20046;-90
2023/10/02 01:06:54;;;;;;;2.03;1.02;;;19.90;99.90;;;;;;4933865;28;20086;-90
2023/10/02 01:09:28;;;;;;;0.95;0.60;;;19.90;99.90;;;;;;4936260;29;20027;-96
2023/10/02 01:11:59;;;;;;;1.98;1.15;;;19.90;99.90;;;;;;4936719;28;20035;-96
2023/10/02 01:14:50;;;;;;;2.30;0.38;;;19.80;99.90;;;;;;4929823;29;20035;-90
2023/10/02 01:17:17;;;;;;;1.77;1.33;;;19.90;99.90;;;;;;4932371;29;20024;-90
2023/10/02 01:19:53;;;;;;;2.47;1.00;;;19.90;99.90;;;;;;4937003;29;20028;-90
2023/10/02 01:22:37;;;;;;;2.95;1.33;;;19.90;99.90;;;;;;4935016;29;20038;-91
2023/10/02 01:25:15;;;;;;;7.75;1.25;;;19.90;99.90;;;;;;4947824;28;20724;-91
2023/10/02 01:27:55;;;;;;;1.02;1.02;;;19.90;99.90;;;;;;4937359;29;20057;-90
2023/10/02 01:30:23;;;;;;;1.58;0.98;;;19.90;99.90;;;;;;4950198;28;20028;-90
2023/10/02 01:33:12;;;;;;;5.70;0.45;;;20.00;99.90;;;;;;4930789;29;20170;-90
2023/10/02 01:35:40;;;;;;;5.05;1.13;;;20.00;99.90;;;;;;4930102;29;20047;-95
2023/10/02 01:38:15;;;;;;;0.85;0.85;;;19.80;99.90;;;;;;4947255;28;20028;-94
2023/10/02 01:40:44;;;;;;;7.45;1.42;;;19.80;99.90;;;;;;5092142;23;20485;-89
2023/10/02 01:43:13;;;;;;;0.95;0.95;;;19.80;99.90;;;;;;4969361;23;20059;-95
2023/10/02 01:45:43;;;;;;;2.35;1.15;;;19.80;99.90;;;;;;4949898;28;20215;-96
2023/10/02 01:48:44;;;;;;;0.40;0.40;;;19.70;99.90;;;;;;4951359;29;20032;-95
2023/10/02 01:51:26;;;;;;;2.85;0.95;;;19.70;99.90;;;;;;4919249;29;20392;-95
2023/10/02 01:53:59;;;;;;;0.45;0.45;;;19.60;99.90;;;;;;4922886;29;20162;-96
2023/10/02 01:56:26;;;;;;;;;;;19.60;99.90;;;;;;4923709;29;20208;-89
2023/10/02 01:58:53;;;;;;;3.30;0.77;;;19.70;99.90;;;;;;4923547;29;20352;-89
2023/10/02 02:01:22;;;;;;;4.20;1.42;;;19.50;99.90;;;;;;4913614;29;20028;-89
2023/10/02 02:03:51;;;;;;;1.45;1.35;;;19.50;99.90;;;;;;4915444;29;20024;-90
2023/10/02 02:06:22;;;;;;;0.60;0.60;;;19.40;99.90;;;;;;4919608;29;20436;-89
2023/10/02 02:08:52;;;;;;;0.77;0.77;;;19.50;99.90;;;;;;4931363;28;20082;-89
2023/10/02 02:11:23;;;;;;;2.92;1.33;;;19.50;99.90;;;;;;4919511;29;20028;-89
2023/10/02 02:13:51;;;;;;;0.63;0.63;;;19.60;99.90;;;;;;4923985;29;20214;-88
2023/10/02 02:16:21;;;;;;;0.63;0.63;;;19.70;99.90;;;;;;4918171;29;20032;-89
2023/10/02 02:18:53;;;;;;;1.40;1.10;;;19.70;99.90;;;;;;4918117;29;20028;-90
2023/10/02 02:21:24;;;;;;;1.92;1.05;;;19.70;99.90;;;;;;4923614;29;20108;-89
2023/10/02 02:24:07;;;;;;;2.15;1.25;;;19.70;99.90;;;;;;4936891;28;20620;-90
2023/10/02 02:26:42;;;;;;;1.20;0.85;;;19.70;99.90;;;;;;4924291;29;20039;-94
2023/10/02 02:29:28;;;;;;;4.07;0.82;;;19.70;99.90;;;;;;4922841;29;20028;-94
2023/10/02 02:31:54;;;;;;;0.60;0.60;;;19.70;99.90;;;;;;4922600;29;20052;-94
2023/10/02 02:34:23;;;;;;;0.88;0.88;;;19.70;99.90;;;;;;4930479;29;20043;-95
2023/10/02 02:36:49;;;;;;;0.68;0.68;;;19.60;99.90;;;;;;4928298;29;20069;-94
2023/10/02 02:39:17;;;;;;;2.17;1.33;;;19.60;99.90;;;;;;4922977;29;20028;-94
2023/10/02 02:41:45;;;;;;;0.50;0.50;;;19.60;99.90;;;;;;4923428;29;20024;-95
2023/10/02 02:46:57;;;;;;;2.65;0.55;;;19.60;99.90;;;;;;4925601;29;20080;-95
2023/10/02 02:49:26;;;;;;;0.30;0.30;;;19.70;99.90;;;;;;4926878;29;20019;-95
2023/10/02 02:51:55;;;;;;;0.45;0.45;;;19.80;99.90;;;;;;4920254;29;20555;-95
2023/10/02 02:54:25;;;;;;;0.30;0.30;;;19.70;99.90;;;;;;4934513;28;20038;-95
2023/10/02 02:56:56;;;;;;;1.50;1.35;;;19.60;99.90;;;;;;4919342;29;20492;-95
2023/10/02 02:59:27;;;;;;;2.35;1.08;;;19.50;99.90;;;;;;4939352;28;20028;-94
2023/10/02 03:02:44;;;;;;;0.82;0.82;;;19.60;99.90;;;;;;4922984;29;20027;-94
2023/10/02 03:04:43;;;;;;;0.17;0.17;;;19.60;99.90;;;;;;4926621;29;20031;-94
2023/10/02 03:07:17;;;;;;;0.70;0.63;;;19.50;99.90;;;;;;4928247;29;20115;-95
2023/10/02 03:09:43;;;;;;;0.90;0.85;;;19.50;99.90;;;;;;4927234;29;20321;-95
2023/10/02 03:12:09;;;;;;;1.83;0.77;;;19.60;99.90;;;;;;4923413;29;20099;-94
2023/10/02 03:14:35;;;;;;;1.60;1.10;;;19.50;99.90;;;;;;4927463;29;20046;-95
2023/10/02 03:19:45;;;;;;;1.08;0.93;;;19.50;99.90;;;;;;4921032;29;20058;-94
2023/10/02 03:22:11;;;;;;;0.95;0.60;;;19.60;99.90;;;;;;4922624;29;20477;-94
2023/10/02 03:24:39;;;;;;;1.63;0.90;;;19.60;99.90;;;;;;4927470;29;20028;-95
2023/10/02 03:27:08;;;;;;;0.90;0.90;;;19.60;99.90;;;;;;4920767;29;20071;-94
2023/10/02 03:29:34;;;;;;;0.50;0.50;;;19.50;99.90;;;;;;4923677;29;20097;-93
2023/10/02 03:32:05;;;;;;;1.55;1.33;;;19.50;99.90;;;;;;4927913;29;20468;-94
2023/10/02 03:34:34;;;;;;;2.83;1.50;;;19.60;99.90;;;;;;4937402;29;20512;-95
2023/10/02 03:39:52;;;;;;;0.50;0.50;;;19.50;99.90;;;;;;4923672;29;20496;-96
2023/10/02 03:42:22;;;;;;;2.17;1.80;;;19.60;99.90;;;;;;4923120;29;20194;-94
2023/10/02 03:44:54;;;;;;;0.52;0.52;;;19.60;99.90;;;;;;4927885;29;20078;-95
2023/10/02 03:47:19;;;;;;;1.40;0.85;;;19.50;99.90;;;;;;4939243;28;20068;-94
2023/10/02 03:49:45;;;;;;;0.80;0.52;;;19.30;99.90;;;;;;4922895;29;20019;-95
2023/10/02 03:52:18;;;;;;;1.25;0.40;;;19.30;99.90;;;;;;4925176;29;20051;-95
2023/10/02 03:54:45;;;;;;;1.45;0.95;;;19.30;99.90;;;;;;4924459;29;20072;-95
2023/10/02 04:00:18;;;;;;;1.75;1.33;;;19.30;99.90;;;;;;4922097;29;20046;-95
2023/10/02 04:02:45;;;;;;;0.25;0.25;;;19.20;99.90;;;;;;4936762;28;20195;-95
2023/10/02 04:05:30;;;;;;;0.22;0.22;;;19.20;99.90;;;;;;4917286;29;20276;-95
2023/10/02 04:08:12;;;;;;;1.17;1.17;;;19.20;99.90;;;;;;4920239;29;20024;-95
2023/10/02 04:10:51;;;;;;;0.80;0.80;;;19.10;99.90;;;;;;4921183;29;20091;-95
2023/10/02 04:13:24;;;;;;;1.00;0.85;;;19.20;99.90;;;;;;4919925;29;20032;-94
2023/10/02 04:15:53;;;;;;;0.55;0.55;;;19.10;99.90;;;;;;4919689;29;20048;-95
2023/10/02 04:21:12;;;;;;;0.52;0.52;;;19.10;99.90;;;;;;4923137;29;20078;-95
2023/10/02 04:23:47;;;;;;;0.88;0.88;;;19.20;99.90;;;;;;4926481;29;20464;-95
2023/10/02 04:26:19;;;;;;;1.70;0.57;;;19.20;99.90;;;;;;4924320;29;20028;-95
2023/10/02 04:28:55;;;;;;;2.38;1.52;;;19.20;99.90;;;;;;4931315;29;20051;-94
2023/10/02 04:31:34;;;;;;;1.75;0.38;;;19.20;99.90;;;;;;4936413;28;20051;-95
2023/10/02 04:36:44;;;;;;;0.43;0.43;;;19.20;99.90;;;;;;4917020;29;20515;-89
2023/10/02 04:39:52;;;;;;;3.53;1.50;;;19.20;99.90;;;;;;4928564;29;20028;-94
2023/10/02 04:42:19;;;;;;;0.57;0.57;;;19.20;99.90;;;;;;4917456;29;20436;-89
2023/10/02 04:44:56;;;;;;;2.65;1.20;;;19.20;99.90;;;;;;4922155;29;20035;-90
2023/10/02 04:47:26;;;;;;;2.05;0.65;;;19.20;99.90;;;;;;4924873;29;20163;-90
2023/10/02 04:58:18;;;;;;;0.20;0.20;;;19.10;99.90;;;;;;4933821;29;20028;-90
2023/10/02 05:03:33;;;;;;;0.65;0.32;;;19.00;99.90;;;;;;4934006;29;20043;-90
2023/10/02 05:05:59;;;;;;;0.63;0.63;;;18.80;99.90;;;;;;4921697;29;20048;-89
2023/10/02 05:11:24;;;;;;;0.40;0.40;;;18.90;99.90;;;;;;4898665;29;20031;-89
2023/10/02 05:16:32;;;;;;;4.10;1.20;;;18.80;99.90;;;;;;4922258;29;20472;-89
2023/10/02 05:18:59;;;;;;;0.57;0.57;;;18.90;99.90;;;;;;4935002;28;20024;-90
2023/10/02 05:21:49;;;;;;;3.97;0.80;;;18.80;99.90;;;;;;4924818;29;20031;-89
2023/10/02 05:24:16;;;;;;;4.88;1.20;;;18.70;99.90;;;;;;4926323;29;20082;-90
2023/10/02 05:26:44;;;;;;;1.95;1.00;;;18.80;99.90;;;;;;4935613;28;20103;-89
2023/10/02 05:29:36;;;;;;;0.90;0.90;;;18.80;99.90;;;;;;4924535;29;20020;-89
2023/10/02 05:32:23;;;;;;;1.17;1.10;;;18.90;99.90;;;;;;4935338;28;20023;-89
2023/10/02 05:34:59;;;;;;;0.85;0.63;;;19.00;99.90;;;;;;4918173;29;20405;-89
2023/10/02 05:37:31;;;;;;;1.00;1.00;;;19.10;99.90;;;;;;4917276;29;20307;-89
2023/10/02 05:40:37;;;;;;;0.40;0.40;;;19.10;99.90;;;;;;4926817;29;20112;-89
2023/10/02 05:43:09;;;;;;;0.47;0.47;;;19.00;99.90;;;;;;4918116;29;20036;-89
2023/10/02 05:48:15;;;;;;;2.33;1.42;;;18.90;99.90;;;;;;4930392;29;20115;-90
2023/10/02 05:50:48;;;;;;;0.60;0.60;;;18.80;99.90;;;;;;4918819;29;20154;-89
2023/10/02 05:53:29;;;;;;;0.50;0.28;;;18.80;99.90;;;;;;4926254;29;20019;-90
2023/10/02 05:56:05;;;;;;;1.10;0.55;;;18.70;99.90;;;;;;4924017;29;20027;-90
2023/10/02 05:58:39;;;;;;;1.63;1.52;;;18.70;99.90;;;;;;4937574;28;20024;-89
2023/10/02 06:01:06;;;;;;;0.52;0.52;;;18.80;99.90;;;;;;4927399;29;20036;-89
2023/10/02 06:03:35;;;;;;;1.50;1.25;;;18.70;99.90;;;;;;4924598;29;20039;-90
2023/10/02 06:06:24;;;;;;;2.80;1.17;;;18.60;99.90;;;;;;4921694;29;20021;-90
2023/10/02 06:09:03;;;;;;;0.93;0.93;;;18.50;99.90;;;;;;4930426;29;20024;-90
2023/10/02 06:11:33;;;;;;;0.50;0.50;;;18.60;99.90;;;;;;4924627;29;20118;-90
2023/10/02 06:14:09;;;;;;;1.85;0.98;;;18.60;99.90;;;;;;4924049;29;20036;-90
2023/10/02 06:16:41;;;;;;;0.30;0.30;;;18.70;99.90;;;;;;4928766;29;20523;-89
2023/10/02 06:19:15;;;;;;;1.27;0.85;;;18.70;99.90;;;;;;4920257;29;20028;-90
2023/10/02 06:21:48;;;;;;;2.83;1.23;;;18.70;99.90;;;;;;4930238;29;20047;-89
2023/10/02 06:24:29;;;;;;;4.10;0.93;;;18.80;99.90;;;;;;4922397;29;20042;-89
2023/10/02 06:27:04;;;;;;;0.50;0.50;;;18.90;99.90;;;;;;4924233;29;20024;-90
2023/10/02 06:29:35;;;;;;;0.50;0.50;;;18.90;99.90;;;;;;4923207;29;20028;-89
2023/10/02 06:32:52;;;;;;;0.43;0.43;;;18.90;99.90;;;;;;4922168;29;20038;-89
2023/10/02 06:34:57;;;;;;;0.30;0.30;;;18.80;99.90;;;;;;4922552;29;20515;-89
2023/10/02 06:37:30;;;;;;;7.75;2.10;;;18.80;99.90;;;;;;4929576;29;20500;-90
2023/10/02 06:40:12;;;;;;;7.90;1.65;;;18.80;99.90;;;;;;4928109;29;20032;-89
2023/10/02 06:42:48;;;;;;;0.63;0.63;;;18.90;99.90;;;;;;4929594;29;20477;-90
2023/10/02 06:45:20;;;;;;;4.38;1.23;;;18.80;99.90;;;;;;4929238;29;20019;-94
2023/10/02 06:47:48;;;;;;;0.93;0.65;;;18.80;99.90;;;;;;4930167;29;20028;-94
2023/10/02 06:50:35;;;;;;;6.78;1.27;;;18.90;99.90;;;;;;4931600;29;20555;-93
2023/10/02 06:53:01;;;;;;;0.40;0.40;;;18.90;99.90;;;;;;4923128;29;20024;-94
2023/10/02 06:55:29;;;;;;;1.00;0.98;;;18.90;99.90;;;;;;4926036;29;20108;-94
2023/10/02 06:57:56;;;;;;;1.23;1.13;;;18.90;99.90;;;;;;4934744;29;20492;-94
2023/10/02 07:00:25;;;;;;;0.85;0.85;;;18.90;99.90;;;;;;4924180;29;20020;-94
2023/10/02 07:03:03;;;;;;;0.30;0.30;;;19.00;99.90;;;;;;4920844;29;20016;-94
2023/10/02 07:05:35;;;;;;;0.52;0.50;;;18.90;99.90;;;;;;4923898;29;20023;-94
2023/10/02 07:09:09;;;;;;;1.83;1.23;;;19.00;99.90;;;;;;4923835;29;20024;-94
2023/10/02 07:10:51;;;;;;;0.85;0.75;;;19.00;99.90;;;;;;4918781;29;20042;-94
2023/10/02 07:13:23;;;;;;;0.52;0.52;;;19.00;99.90;;;;;;4926080;29;20034;-93
2023/10/02 07:15:59;;;;;;;0.47;0.47;;;19.00;99.90;;;;;;4924363;29;20024;-94
2023/10/02 07:18:45;;;;;;;0.38;0.38;;;19.10;99.90;;;;;;4924903;29;20030;-94
2023/10/02 07:21:11;;;;;;;0.45;0.45;;;19.00;99.90;;;;;;4937247;28;20020;-94
2023/10/02 07:23:37;;;;;;;0.95;0.95;;;19.10;99.90;;;;;;4924900;29;20477;-94
2023/10/02 07:26:12;;;;;;;3.53;1.48;;;19.10;99.90;;;;;;4925442;29;20024;-94
2023/10/02 07:28:50;;;;;;;1.58;1.15;;;19.10;99.90;;;;;;4923330;29;20060;-94
2023/10/02 07:31:17;;;;;;;7.43;0.98;;;19.20;99.90;;;;;;4922259;29;20028;-95
2023/10/02 07:33:44;;;;;;;0.22;0.22;;;19.20;99.90;;;;;;4921587;28;20392;-94
2023/10/02 07:36:14;;;;;;;0.95;0.90;;;19.10;99.90;;;;;;4929505;29;20485;-93
2023/10/02 07:38:42;;;;;;;0.75;0.75;;;19.20;99.90;;;;;;4921114;29;20495;-95
2023/10/02 07:41:28;;;;;;;0.85;0.40;;;19.20;99.90;;;;;;4925063;29;20063;-94
2023/10/02 07:44:06;;;;;;;0.68;0.68;;;19.20;99.90;;;;;;4921919;29;20047;-94
2023/10/02 07:46:33;;;;;;;1.02;0.95;;;19.30;99.90;;;;;;4926059;29;20032;-94
2023/10/02 07:49:00;;;;;;;0.75;0.75;;;19.40;99.90;;;;;;4928566;29;20086;-95
2023/10/02 07:51:37;;;;;;;0.50;0.50;;;19.40;99.90;;;;;;4921544;29;20031;-95
2023/10/02 07:54:07;;;;;;;1.42;1.33;;;19.40;99.90;;;;;;4937551;28;20040;-94
2023/10/02 07:56:34;;;;;;;2.45;0.80;;;19.50;99.90;;;;;;4929400;29;20030;-94
2023/10/02 07:59:03;;;;;;;0.40;0.40;;;19.60;99.90;;;;;;4922977;29;20096;-95
2023/10/02 08:01:33;;;;;;;2.45;1.00;;;19.60;99.90;;;;;;4920735;29;20035;-95
2023/10/02 08:04:01;;;;;;;0.70;0.70;;;19.60;99.90;;;;;;4924629;29;20032;-94
2023/10/02 08:06:36;;;;;;;11.02;0.80;;;19.70;99.90;;;;;;4930718;29;20031;-96
2023/10/02 08:11:39;;;;;;;0.60;0.43;;;19.70;99.90;;;;;;4948405;23;20082;-95
2023/10/02 08:14:06;;;;;;;0.80;0.80;;;19.80;99.90;;;;;;4943142;29;20098;-96
2023/10/02 08:16:35;;;;;;;5.68;1.40;;;19.90;99.90;;;;;;4938428;28;20027;-96
2023/10/02 08:19:20;;;;;;;0.77;0.77;;;20.00;99.90;;;;;;4945956;28;20458;-96
2023/10/02 08:21:46;;;;;;;10.38;0.93;;;20.00;99.90;;;;;;4959865;28;20019;-96
2023/10/02 08:24:13;;;;;;;0.95;0.90;;;20.10;99.90;;;;;;4941090;29;20039;-92
2023/10/02 08:26:41;;;;;;;0.43;0.43;;;20.10;99.90;;;;;;4933803;29;20118;-92
2023/10/02 08:29:09;;;;;;;1.05;1.05;;;20.20;99.90;;;;;;4939447;28;20032;-92
2023/10/02 08:31:42;;;;;;;0.85;0.85;;;20.20;99.90;;;;;;4928780;29;20028;-95
2023/10/02 08:34:13;;;;;;;2.78;2.25;;;20.20;99.90;;;;;;4915962;29;20032;-93
2023/10/02 08:39:42;;;;;;;0.20;0.20;;;20.40;99.90;;;;;;4927597;29;20563;-92
2023/10/02 08:42:09;;;;;;;0.43;0.43;;;20.50;99.90;;;;;;4917511;29;20078;-92
2023/10/02 08:44:41;;;;;;;2.33;1.95;;;20.60;99.90;;;;;;4928682;29;20039;-92
2023/10/02 08:47:09;;;;;;;0.43;0.43;;;20.60;99.90;;;;;;4931047;29;20042;-92
2023/10/02 08:49:36;;;;;;;0.85;0.85;;;20.80;99.90;;;;;;4945429;28;20031;-91
2023/10/02 08:52:06;;;;;;;8.68;1.48;;;20.90;99.90;;;;;;4929826;29;20194;-93
2023/10/02 08:54:35;;;;;;;0.57;0.57;;;21.00;99.90;;;;;;4931881;29;20040;-92
2023/10/02 08:57:18;;;;;;;7.32;1.20;;;21.20;99.90;;;;;;4941167;28;20597;-92
2023/10/02 08:59:55;;;;;;;0.82;0.82;;;21.30;99.90;;;;;;5330123;23;20027;-96
2023/10/02 09:02:23;;;;;;;0.98;0.80;;;21.30;99.90;;;;;;4904362;29;20083;-92
2023/10/02 09:04:52;;;;;;;0.63;0.63;;;21.50;99.90;;;;;;4905622;29;20028;-91
2023/10/02 09:07:45;;;;;;;1.75;1.58;;;21.70;99.90;;;;;;4902700;29;20023;-91
2023/10/02 09:10:28;;;;;;;1.63;1.63;;;21.90;99.90;;;;;;4898834;29;20075;-93
2023/10/02 09:13:24;;;;;;;0.95;0.95;;;22.00;99.90;;;;;;4900777;29;20473;-91
2023/10/02 09:15:53;;;;;;;0.80;0.80;;;22.20;99.90;;;;;;4905058;29;20127;-91
2023/10/02 09:18:35;;;;;;;1.58;1.23;;;22.30;99.90;;;;;;4901414;29;20430;-91
2023/10/02 09:21:17;;;;;;;1.30;1.20;;;22.50;99.90;;;;;;4915276;29;20028;-90
2023/10/02 09:25:18;;;;;;;2.53;2.35;;;22.60;99.90;;;;;;5105215;27;20478;-92
2023/10/02 09:27:55;;;;;;;2.22;1.02;;;22.70;99.90;;;;;;5086674;28;20085;-92
2023/10/02 09:33:03;;;;;;;2.15;1.10;;;23.00;99.90;;;;;;5112344;28;20093;-92
2023/10/02 09:35:29;;;;;;;1.30;1.20;;;23.00;99.90;;;;;;5087939;28;20023;-91
2023/10/02 09:38:07;;;;;;;3.95;2.60;;;23.00;99.90;;;;;;5088667;28;20024;-91
2023/10/02 09:41:23;;;;;;;1.30;1.08;;;23.10;99.90;;;;;;5086049;28;20015;-91
2023/10/02 09:43:24;;;;;;;1.30;1.20;;;23.00;99.90;;;;;;5088575;28;20043;-91
2023/10/02 09:46:00;;;;;;;3.45;1.52;;;23.10;99.90;;;;;;5097080;28;20123;-91
2023/10/02 09:48:53;;;;;;;1.83;1.38;;;23.10;99.90;;;;;;5074965;28;20015;-90
2023/10/02 09:51:30;;;;;;;1.45;1.42;;;23.10;99.90;;;;;;5085554;28;20024;-89
2023/10/02 09:54:16;;;;;;;1.65;1.52;;;22.90;99.90;;;;;;5084107;28;20214;-92
2023/10/02 09:57:13;;;;;;;0.73;0.73;;;23.00;99.90;;;;;;5092817;28;20115;-91
2023/10/02 09:59:49;;;;;;;1.48;1.02;;;22.90;99.90;;;;;;5104672;28;20087;-96
2023/10/02 10:08:17;;;;;;;1.02;0.77;;;23.00;99.90;;;;;;5114338;28;20019;-96
2023/10/02 10:11:00;;;;;;;0.80;0.80;;;23.10;99.90;;;;;;5208784;22;20020;-95
2023/10/02 10:13:38;;;;;;;1.10;1.00;;;23.20;99.90;;;;;;5036880;28;20041;-90
2023/10/02 10:16:18;;;;;;;3.78;2.25;;;23.20;99.90;;;;;;5033137;28;20013;-91
2023/10/02 10:21:56;;;;;;;0.98;0.80;;;23.20;99.90;;;;;;5033288;28;20080;-92
2023/10/02 10:24:56;;;;;;;1.35;0.95;;;23.20;99.90;;;;;;5032298;28;20029;-90
2023/10/02 10:27:40;;;;;;;1.92;1.83;;;23.10;99.90;;;;;;5033502;28;20026;-90
2023/10/02 10:30:28;;;;;;;1.63;1.38;;;23.10;99.90;;;;;;5032981;28;20028;-91
2023/10/02 10:35:35;;;;;;;1.50;1.40;;;23.10;99.90;;;;;;5024375;28;20037;-91
2023/10/02 10:38:41;;;;;;;1.40;1.38;;;23.20;99.90;;;;;;5035876;28;20026;-90
2023/10/02 10:41:27;;;;;;;3.85;1.30;;;23.20;99.90;;;;;;5024476;28;20030;-96
2023/10/02 10:44:06;;;;;;;1.20;1.20;;;23.30;99.90;;;;;;5025892;28;20025;-93
2023/10/02 10:46:32;;;;;;;1.02;1.02;;;23.40;99.90;;;;;;5022396;28;20172;-90
2023/10/02 10:49:09;;;;;;;4.78;1.52;;;23.40;99.90;;;;;;5018435;28;20152;-88
2023/10/02 10:51:37;;;;;;;6.05;1.83;;;23.40;99.90;;;;;;5018314;28;20030;-92
2023/10/02 10:54:13;;;;;;;1.10;1.05;;;23.40;99.90;;;;;;5032470;28;20026;-92
2023/10/02 10:57:43;;;;;;;2.03;1.10;;;23.50;99.90;;;;;;5019559;28;20029;-95
2023/10/02 11:00:23;;;;;;;0.63;0.63;;;23.50;99.90;;;;;;5017419;28;20416;-96
2023/10/02 11:03:11;;;;;;;5.35;1.35;;;23.50;99.90;;;;;;5023702;28;20029;-95
2023/10/02 11:05:41;;;;;;;9.32;1.33;;;23.60;99.90;;;;;;5024145;28;20117;-95
2023/10/02 11:08:40;;;;;;;15.65;2.00;;;23.60;99.90;;;;;;5023138;28;20053;-96
2023/10/02 11:11:19;;;;;;;0.93;0.85;;;23.60;99.90;;;;;;5019846;28;20048;-96
2023/10/02 11:14:01;;;;;;;1.77;1.27;;;23.80;99.90;;;;;;5021111;28;20025;-96
2023/10/02 11:16:35;;;;;;;0.77;0.77;;;24.00;99.90;;;;;;5024055;28;20374;-96
2023/10/02 11:19:13;;;;;;;9.80;2.53;;;24.40;99.90;;;;;;5034405;28;20079;-96
2023/10/02 11:21:59;;;;;;;1.48;1.40;;;24.50;99.90;;;;;;5026758;28;20052;-96
2023/10/02 11:24:28;;;;;;;9.20;2.22;;;24.50;99.90;;;;;;5021448;28;20045;-95
2023/10/02 11:27:07;;;;;;;6.50;1.08;;;24.50;99.90;;;;;;5019910;28;20041;-95
2023/10/02 11:30:01;;;;;;;1.40;1.38;;;24.40;99.90;;;;;;5017330;28;20021;-96
2023/10/02 11:32:58;;;;;;;1.70;1.35;;;24.30;99.90;;;;;;5022239;28;20033;-93
2023/10/02 11:35:41;;;;;;;0.85;0.85;;;24.40;99.90;;;;;;5021860;28;20021;-96
2023/10/02 11:38:10;;;;;;;;;;;24.40;99.90;;;;;;5025451;28;20033;-96
2023/10/02 11:40:43;;;;;;;1.45;1.00;;;24.30;99.90;;;;;;5022960;28;20380;-92
2023/10/02 11:43:08;;;;;;;1.02;1.02;;;24.30;99.90;;;;;;5024524;28;20037;-92
2023/10/02 11:45:36;;;;;;;1.25;1.17;;;24.30;99.90;;;;;;5025370;28;20017;-93
2023/10/02 11:48:02;;;;;;;2.50;1.25;;;24.40;99.90;;;;;;5023842;28;20125;-91
2023/10/02 11:50:33;;;;;;;0.90;0.90;;;24.50;99.90;;;;;;5020489;28;20117;-95
2023/10/02 11:53:00;;;;;;;1.47;1.37;;;24.40;99.90;;;;;;5020531;28;20029;-91
2023/10/02 11:55:28;;;;;;;2.88;1.80;;;24.40;99.90;;;;;;5086793;22;21180;-97
2023/10/02 11:57:56;;;;;;;2.45;1.95;;;24.30;99.90;;;;;;5035373;28;20029;-96
2023/10/02 12:00:23;;;;;;;3.42;1.80;;;24.30;99.90;;;;;;5037407;28;21025;-96
2023/10/02 12:03:27;;;;;;;;;;;;;;;;;;;;;
2023/10/02 12:06:01;;;;;;;1.17;1.08;;;24.30;99.90;;;;;;5040675;28;20062;-96
2023/10/02 12:09:17;;;;;;;1.17;1.02;;;24.30;99.90;;;;;;5037972;28;20025;-96
2023/10/02 12:11:48;;;;;;;5.25;1.25;;;24.30;99.90;;;;;;5035561;28;20032;-96
2023/10/02 12:14:17;;;;;;;2.35;0.82;;;24.20;99.90;;;;;;5050981;28;20044;-91
2023/10/02 12:16:57;;;;;;;1.73;1.17;;;24.30;99.90;;;;;;5043115;28;20655;-91
2023/10/02 12:19:42;;;;;;;4.90;1.60;;;24.30;99.90;;;;;;5037521;28;20570;-92
2023/10/02 12:22:44;;;;;;;;;;;;;;;;;;;;;
2023/10/02 12:25:14;;;;;;;1.73;1.40;;;24.30;99.90;;;;;;5036513;28;20055;-90
2023/10/02 12:27:52;;;;;;;;;;;;;;;;;;;;;
2023/10/02 12:30:27;;;;;;;1.40;1.33;;;24.50;99.90;;;;;;5032821;28;20033;-90
2023/10/02 12:32:55;;;;;;;3.22;1.80;;;24.50;99.90;;;;;;5036207;28;20026;-90
2023/10/02 12:35:39;;;;;;;4.20;2.60;;;24.60;99.90;;;;;;5031279;28;20460;-91
2023/10/02 12:38:17;;;;;;;1.23;1.20;;;24.60;99.90;;;;;;5250930;22;20152;-89
2023/10/02 12:40:46;;;;;;;2.08;1.60;;;24.70;99.90;;;;;;5020982;28;20745;-93
2023/10/02 12:43:26;;;;;;;;;;;;;;;;;;;;;
2023/10/02 12:46:04;;;;;;;1.63;1.52;;;24.80;99.90;;;;;;5029261;28;20033;-90
2023/10/02 12:49:11;;;;;;;;;;;;;;;;;;;;;
2023/10/02 12:51:59;;;;;;;;;;;;;;;;;;;;;
2023/10/02 12:54:32;;;;;;;1.13;1.10;;;25.00;99.90;;;;;;5020432;28;20030;-91
2023/10/02 12:57:08;;;;;;;;;;;;;;;;;;;;;
2023/10/02 13:02:41;;;;;;;0.93;0.93;;;25.10;99.90;;;;;;4995811;28;20126;-90
2023/10/02 13:09:01;;;;;;;;;;;;;;;;;;;;;
2023/10/02 13:50:35;;;;;;;1.60;1.25;;;25.30;99.90;;;;;;5005141;28;20933;-96
2023/10/02 13:53:04;;;;;;;9.95;1.77;;;25.30;99.90;;;;;;5011541;28;20034;-96
2023/10/02 13:55:35;;;;;;;2.33;1.58;;;25.40;99.90;;;;;;5009316;28;20050;-96
2023/10/02 13:58:06;;;;;;;1.08;0.90;;;25.30;99.90;;;;;;5012347;28;20033;-96
2023/10/02 14:01:27;;;;;;;5.05;2.45;;;25.30;99.90;;;;;;5356107;22;20046;-96
2023/10/02 14:03:54;;;;;;;1.30;1.20;;;25.40;99.90;;;;;;5000846;28;20080;-96
2023/10/02 14:06:23;;;;;;;1.35;1.25;;;25.40;99.90;;;;;;5025976;28;20022;-96
2023/10/02 14:08:52;;;;;;;4.95;1.08;;;25.50;99.90;;;;;;5026512;28;20034;-96
2023/10/02 14:11:22;;;;;;;0.98;0.98;;;25.50;99.90;;;;;;5027015;28;20010;-96
2023/10/02 14:24:55;;;;;;;1.63;1.58;;;25.90;99.90;;;;;;5451105;22;20570;-96
2023/10/02 14:29:57;;;;;;;1.45;1.23;;;26.10;99.90;;;;;;5579000;22;20314;-96
2023/10/02 14:35:01;;;;;;;1.13;1.02;;;26.20;99.90;;;;;;4964905;28;20530;-96
2023/10/02 14:37:29;;;;;;;0.88;0.88;;;26.20;99.90;;;;;;5086935;22;20041;-91
2023/10/02 14:40:05;;;;;;;;;;;;;;;;;;;;;
2023/10/02 14:42:31;;;;;;;2.13;1.20;;;26.20;99.90;;;;;;5038736;28;20504;-92
2023/10/02 14:44:59;;;;;;;3.28;2.25;;;26.10;99.90;;;;;;5038188;28;20039;-94
2023/10/02 14:47:27;;;;;;;4.13;1.98;;;26.10;99.90;;;;;;5034168;28;20050;-91
2023/10/02 14:49:54;;;;;;;2.90;1.77;;;26.00;99.90;;;;;;5040373;28;20033;-91
2023/10/02 14:52:20;;;;;;;1.33;1.23;;;26.10;99.90;;;;;;5040067;28;20037;-92
2023/10/02 14:54:47;;;;;;;1.23;1.23;;;26.20;99.90;;;;;;5055754;28;20033;-92
2023/10/02 14:57:14;;;;;;;4.47;2.67;;;26.10;99.90;;;;;;5046768;28;20045;-92
2023/10/02 14:59:41;;;;;;;1.17;1.10;;;26.10;99.90;;;;;;5047938;28;20025;-92
2023/10/02 15:02:07;;;;;;;4.32;1.58;;;26.10;99.90;;;;;;5036978;28;20040;-92
2023/10/02 15:04:33;;;;;;;2.05;1.35;;;26.20;99.90;;;;;;5034643;28;20558;-92
2023/10/02 15:06:59;;;;;;;1.75;1.70;;;26.20;99.90;;;;;;5039231;28;20022;-91
2023/10/02 15:09:25;;;;;;;6.18;1.60;;;26.30;99.90;;;;;;5036107;28;20503;-92
2023/10/02 15:11:50;;;;;;;1.83;1.45;;;26.30;99.90;;;;;;5035254;28;20372;-88
2023/10/02 15:14:16;;;;;;;15.77;1.83;;;26.40;99.90;;;;;;5038315;28;20025;-89
2023/10/02 15:16:42;;;;;;;4.30;1.13;;;26.40;99.90;;;;;;5039658;28;20473;-87
2023/10/02 15:19:10;;;;;;;1.40;1.02;;;26.30;99.90;;;;;;5033460;28;20029;-90
2023/10/02 15:21:36;;;;;;;4.63;1.80;;;26.30;99.90;;;;;;5032010;28;20254;-91
2023/10/02 15:24:07;;;;;;;4.53;1.33;;;26.30;99.90;;;;;;5029884;28;20041;-92
2023/10/02 15:26:33;;;;;;;1.33;1.25;;;26.30;99.90;;;;;;5028072;28;20128;-91
2023/10/02 15:29:04;;;;;;;6.00;0.90;;;26.40;99.90;;;;;;5042031;28;20102;-93
2023/10/02 15:31:30;;;;;;;1.17;1.15;;;26.40;99.90;;;;;;5029170;28;20460;-91
2023/10/02 15:33:55;;;;;;;16.15;1.77;;;26.40;99.90;;;;;;5029219;28;20029;-91
2023/10/02 15:36:21;;;;;;;0.95;0.95;;;26.40;99.90;;;;;;5037786;28;20024;-91
2023/10/02 15:38:48;;;;;;;3.20;1.83;;;26.50;99.90;;;;;;5037174;28;20038;-92
2023/10/02 15:41:28;;;;;;;2.00;1.17;;;26.40;99.90;;;;;;5039343;28;20040;-91